createdAt,value
2019-06-27T00:00:03.576Z,74.05
2019-06-27T00:02:29.466Z,74.02
2019-06-27T00:04:55.394Z,74.02
2019-06-27T00:07:21.304Z,74.09
2019-06-27T00:09:47.279Z,74.08
2019-06-27T00:12:13.213Z,73.99
2019-06-27T00:14:39.103Z,74.06
2019-06-27T00:17:04.992Z,74.07
2019-06-27T00:19:31.134Z,74.04
2019-06-27T00:21:57.033Z,74.12
2019-06-27T00:24:22.926Z,74.26
2019-06-27T00:26:57.067Z,74.21
2019-06-27T00:29:16.633Z,74.26
2019-06-27T00:31:42.766Z,74.25
2019-06-27T00:34:08.697Z,74.24
2019-06-27T00:36:34.629Z,74.26
2019-06-27T00:39:00.492Z,74.26
2019-06-27T00:41:26.404Z,74.31
2019-06-27T00:43:52.559Z,74.25
2019-06-27T00:46:18.428Z,74.26
2019-06-27T00:48:44.350Z,74.22
2019-06-27T00:51:10.277Z,74.24
2019-06-27T00:53:36.483Z,74.30
2019-06-27T00:56:02.394Z,74.29
2019-06-27T00:58:28.254Z,74.30
2019-06-27T01:00:56.374Z,74.32
2019-06-27T01:03:22.244Z,74.36
2019-06-27T01:05:48.105Z,74.35
2019-06-27T01:08:14.029Z,74.42
2019-06-27T01:10:39.993Z,74.37
2019-06-27T01:13:06.158Z,74.33
2019-06-27T01:15:32.313Z,74.36
2019-06-27T01:17:58.205Z,74.38
2019-06-27T01:20:26.304Z,74.31
2019-06-27T01:22:52.197Z,74.37
2019-06-27T01:25:18.060Z,74.42
2019-06-27T01:27:43.948Z,74.41
2019-06-27T01:30:11.334Z,74.34
2019-06-27T01:32:37.252Z,74.37
2019-06-27T01:35:06.438Z,74.39
2019-06-27T01:37:32.318Z,74.38
2019-06-27T01:39:58.181Z,74.32
2019-06-27T01:42:26.558Z,74.39
2019-06-27T01:44:56.996Z,74.31
2019-06-27T01:47:22.875Z,74.39
2019-06-27T01:49:48.864Z,74.35
2019-06-27T01:52:14.729Z,74.42
2019-06-27T01:54:40.599Z,74.37
2019-06-27T01:57:06.454Z,74.34
2019-06-27T01:59:32.357Z,74.31
2019-06-27T02:01:58.488Z,74.34
2019-06-27T02:04:25.608Z,74.24
2019-06-27T02:06:51.496Z,74.23
2019-06-27T02:09:17.364Z,74.17
2019-06-27T02:11:43.235Z,74.24
2019-06-27T02:14:09.179Z,74.19
2019-06-27T02:16:35.375Z,74.20
2019-06-27T02:19:01.263Z,74.20
2019-06-27T02:21:27.186Z,74.21
2019-06-27T02:23:53.054Z,74.21
2019-06-27T02:26:19.257Z,74.07
2019-06-27T02:28:45.127Z,74.05
2019-06-27T02:31:11.002Z,74.09
2019-06-27T02:33:36.861Z,74.17
2019-06-27T02:36:02.840Z,74.15
2019-06-27T02:38:29.030Z,74.22
2019-06-27T02:40:58.515Z,74.22
2019-06-27T02:43:22.716Z,74.21
2019-06-27T02:45:48.662Z,74.31
2019-06-27T02:48:14.565Z,74.46
2019-06-27T02:50:40.453Z,74.39
2019-06-27T02:53:06.442Z,74.50
2019-06-27T02:55:32.306Z,74.31
2019-06-27T02:57:59.043Z,74.43
2019-06-27T03:00:24.916Z,74.44
2019-06-27T03:02:50.902Z,74.43
2019-06-27T03:05:16.790Z,74.44
2019-06-27T03:07:42.649Z,74.40
2019-06-27T03:10:08.540Z,74.48
2019-06-27T03:12:34.486Z,74.42
2019-06-27T03:15:00.336Z,74.42
2019-06-27T03:17:26.206Z,74.53
2019-06-27T03:19:52.074Z,74.38
2019-06-27T03:22:17.939Z,74.42
2019-06-27T03:24:43.814Z,74.42
2019-06-27T03:27:09.688Z,74.40
2019-06-27T03:29:35.548Z,74.37
2019-06-27T03:32:01.703Z,74.40
2019-06-27T03:34:27.586Z,74.29
2019-06-27T03:36:53.463Z,74.31
2019-06-27T03:39:19.339Z,74.37
2019-06-27T03:41:45.331Z,74.34
2019-06-27T03:44:11.214Z,74.32
2019-06-27T03:46:37.095Z,74.27
2019-06-27T03:49:02.961Z,74.23
2019-06-27T03:51:28.830Z,72.77
2019-06-27T03:53:57.722Z,74.19
2019-06-27T03:56:23.589Z,74.18
2019-06-27T03:59:06.351Z,74.19
2019-06-27T04:01:17.230Z,74.01
2019-06-27T04:03:43.731Z,73.77
2019-06-27T04:06:09.771Z,74.23
2019-06-27T04:08:35.915Z,74.14
2019-06-27T04:11:01.859Z,74.20
2019-06-27T04:13:27.741Z,74.16
2019-06-27T04:15:53.614Z,74.16
2019-06-27T04:18:19.477Z,74.13
2019-06-27T04:20:45.417Z,74.14
2019-06-27T04:23:11.286Z,74.13
2019-06-27T04:25:37.208Z,74.12
2019-06-27T04:28:03.106Z,74.04
2019-06-27T04:30:28.963Z,74.07
2019-06-27T04:32:55.208Z,74.06
2019-06-27T04:35:21.337Z,74.01
2019-06-27T04:37:47.188Z,74.03
2019-06-27T04:40:13.065Z,74.02
2019-06-27T04:42:38.952Z,73.90
2019-06-27T04:45:05.592Z,73.98
2019-06-27T04:47:31.641Z,73.94
2019-06-27T04:49:57.525Z,73.98
2019-06-27T04:52:23.387Z,73.87
2019-06-27T04:54:49.416Z,73.89
2019-06-27T04:57:15.313Z,73.80
2019-06-27T04:59:52.447Z,73.78
2019-06-27T05:02:08.895Z,72.75
2019-06-27T05:04:34.782Z,73.69
2019-06-27T05:07:00.829Z,73.83
2019-06-27T05:09:26.721Z,73.79
2019-06-27T05:11:52.612Z,73.54
2019-06-27T05:14:18.476Z,73.42
2019-06-27T05:16:44.839Z,73.44
2019-06-27T05:19:10.703Z,73.55
2019-06-27T05:21:36.861Z,73.55
2019-06-27T05:24:02.743Z,73.11
2019-06-27T05:26:28.812Z,73.39
2019-06-27T05:28:57.794Z,73.40
2019-06-27T05:31:23.672Z,73.24
2019-06-27T05:33:49.893Z,73.37
2019-06-27T05:36:15.763Z,73.33
2019-06-27T05:38:41.629Z,73.10
2019-06-27T05:41:07.767Z,73.01
2019-06-27T05:43:33.633Z,73.06
2019-06-27T05:45:59.495Z,73.21
2019-06-27T05:48:25.365Z,73.44
2019-06-27T05:50:51.241Z,73.20
2019-06-27T05:53:17.167Z,73.18
2019-06-27T05:55:43.565Z,73.32
2019-06-27T05:58:09.572Z,73.20
2019-06-27T06:00:35.482Z,73.30
2019-06-27T06:03:01.435Z,73.42
2019-06-27T06:05:27.309Z,73.20
2019-06-27T06:07:53.241Z,73.06
2019-06-27T06:10:19.415Z,73.05
2019-06-27T06:12:45.351Z,73.10
2019-06-27T06:15:11.262Z,73.07
2019-06-27T06:17:37.143Z,72.86
2019-06-27T06:20:06.684Z,72.72
2019-06-27T06:22:32.751Z,72.80
2019-06-27T06:24:58.637Z,73.01
2019-06-27T06:27:27.768Z,72.93
2019-06-27T06:29:53.643Z,73.00
2019-06-27T06:32:19.535Z,73.05
2019-06-27T06:34:45.772Z,72.96
2019-06-27T06:37:11.669Z,72.87
2019-06-27T06:39:37.547Z,72.96
2019-06-27T06:42:03.728Z,72.86
2019-06-27T06:44:29.615Z,72.95
2019-06-27T06:46:55.488Z,73.11
2019-06-27T06:49:21.349Z,73.21
2019-06-27T06:51:47.240Z,73.08
2019-06-27T06:54:13.180Z,73.31
2019-06-27T06:56:39.185Z,73.29
2019-06-27T06:59:05.068Z,73.31
2019-06-27T07:01:30.955Z,73.36
2019-06-27T07:03:56.812Z,73.30
2019-06-27T07:06:22.733Z,73.52
2019-06-27T07:08:48.631Z,73.62
2019-06-27T07:11:14.500Z,73.59
2019-06-27T07:13:40.513Z,73.49
2019-06-27T07:16:06.435Z,73.64
2019-06-27T07:18:32.379Z,73.70
2019-06-27T07:20:58.267Z,73.54
2019-06-27T07:23:25.032Z,73.54
2019-06-27T07:25:50.918Z,73.57
2019-06-27T07:28:16.800Z,73.74
2019-06-27T07:30:42.676Z,73.67
2019-06-27T07:33:10.322Z,73.52
2019-06-27T07:35:36.550Z,73.30
2019-06-27T07:38:02.431Z,73.07
2019-06-27T07:40:28.296Z,72.64
2019-06-27T07:42:54.849Z,72.44
2019-06-27T07:45:21.088Z,72.18
2019-06-27T07:47:46.973Z,72.03
2019-06-27T07:50:12.868Z,71.64
2019-06-27T07:52:38.805Z,71.52
2019-06-27T07:55:04.803Z,71.59
2019-06-27T07:57:30.702Z,71.49
2019-06-27T07:59:56.619Z,71.53
2019-06-27T08:02:22.579Z,71.39
2019-06-27T08:04:48.667Z,71.35
2019-06-27T08:07:14.664Z,70.99
2019-06-27T08:09:40.552Z,71.33
2019-06-27T08:12:06.483Z,71.39
2019-06-27T08:14:32.668Z,71.39
2019-06-27T08:16:58.588Z,71.39
2019-06-27T08:19:26.351Z,71.39
2019-06-27T08:21:57.663Z,71.36
2019-06-27T08:24:26.622Z,71.40
2019-06-27T08:26:52.564Z,71.37
2019-06-27T08:29:18.443Z,71.41
2019-06-27T08:31:51.463Z,71.32
2019-06-27T08:34:12.077Z,71.37
2019-06-27T08:36:38.015Z,71.43
2019-06-27T08:39:05.125Z,71.36
2019-06-27T08:41:31.031Z,71.32
2019-06-27T08:43:56.968Z,71.39
2019-06-27T08:46:22.890Z,71.28
2019-06-27T08:48:48.837Z,71.37
2019-06-27T08:51:14.769Z,71.44
2019-06-27T08:53:40.699Z,71.36
2019-06-27T08:56:06.577Z,71.52
2019-06-27T08:58:32.479Z,71.49
2019-06-27T09:00:58.344Z,71.62
2019-06-27T09:03:24.562Z,71.54
2019-06-27T09:05:50.488Z,71.49
2019-06-27T09:08:16.373Z,71.55
2019-06-27T09:10:42.406Z,71.57
2019-06-27T09:13:08.272Z,71.59
2019-06-27T09:15:34.196Z,71.54
2019-06-27T09:18:00.197Z,71.46
2019-06-27T09:20:26.078Z,71.51
2019-06-27T09:22:52.229Z,71.42
2019-06-27T09:25:18.234Z,71.56
2019-06-27T09:27:44.380Z,71.55
2019-06-27T09:30:10.250Z,71.56
2019-06-27T09:32:36.128Z,71.56
2019-06-27T09:35:02.554Z,71.57
2019-06-27T09:37:28.429Z,71.60
2019-06-27T09:39:55.064Z,71.71
2019-06-27T09:42:21.236Z,71.58
2019-06-27T09:44:47.110Z,71.64
2019-06-27T09:47:13.004Z,71.69
2019-06-27T09:49:38.874Z,71.58
2019-06-27T09:52:04.736Z,71.58
2019-06-27T09:54:30.607Z,71.45
2019-06-27T09:56:56.547Z,71.62
2019-06-27T09:59:22.409Z,71.62
2019-06-27T10:01:48.303Z,71.66
2019-06-27T10:04:14.189Z,71.64
2019-06-27T10:06:40.317Z,71.67
2019-06-27T10:09:06.225Z,71.59
2019-06-27T10:11:32.365Z,71.65
2019-06-27T10:13:58.239Z,71.59
2019-06-27T10:16:26.644Z,71.69
2019-06-27T10:18:52.793Z,71.62
2019-06-27T10:21:18.670Z,71.37
2019-06-27T10:23:44.804Z,71.44
2019-06-27T10:26:10.719Z,71.63
2019-06-27T10:28:36.593Z,71.56
2019-06-27T10:31:02.487Z,71.65
2019-06-27T10:33:28.643Z,71.62
2019-06-27T10:35:57.391Z,71.69
2019-06-27T10:38:23.246Z,71.66
2019-06-27T10:40:49.174Z,71.75
2019-06-27T10:43:15.148Z,71.70
2019-06-27T10:45:41.162Z,71.59
2019-06-27T10:48:07.058Z,71.67
2019-06-27T10:50:32.971Z,71.80
2019-06-27T10:52:58.833Z,71.49
2019-06-27T10:55:27.826Z,71.64
2019-06-27T10:57:53.692Z,71.67
2019-06-27T11:00:19.624Z,71.54
2019-06-27T11:02:45.795Z,71.38
2019-06-27T11:05:11.661Z,71.59
2019-06-27T11:07:40.742Z,71.62
2019-06-27T11:10:05.353Z,71.75
2019-06-27T11:12:31.242Z,71.53
2019-06-27T11:14:59.476Z,71.54
2019-06-27T11:17:24.891Z,71.52
2019-06-27T11:19:52.704Z,71.51
2019-06-27T11:22:18.425Z,71.67
2019-06-27T11:24:44.286Z,71.59
2019-06-27T11:27:10.171Z,71.51
2019-06-27T11:29:36.369Z,71.50
2019-06-27T11:32:02.170Z,71.51
2019-06-27T11:34:28.073Z,71.58
2019-06-27T11:36:56.024Z,71.62
2019-06-27T11:39:23.357Z,71.56
2019-06-27T11:41:49.518Z,71.47
2019-06-27T11:44:15.440Z,71.33
2019-06-27T11:46:41.326Z,71.51
2019-06-27T11:49:07.208Z,71.33
2019-06-27T11:51:33.382Z,71.43
2019-06-27T11:53:59.255Z,71.26
2019-06-27T11:56:25.141Z,71.40
2019-06-27T11:58:51.002Z,71.52
2019-06-27T12:01:16.890Z,71.36
2019-06-27T12:03:49.434Z,71.37
2019-06-27T12:06:10.499Z,71.21
2019-06-27T12:08:36.426Z,71.46
2019-06-27T12:11:02.303Z,71.31
2019-06-27T12:13:28.222Z,71.33
2019-06-27T12:15:56.622Z,71.36
2019-06-27T12:18:22.539Z,71.35
2019-06-27T12:20:48.769Z,71.44
2019-06-27T12:23:14.676Z,71.30
2019-06-27T12:25:40.545Z,71.23
2019-06-27T12:28:06.470Z,71.18
2019-06-27T12:30:32.360Z,71.31
2019-06-27T12:32:58.289Z,71.25
2019-06-27T12:35:26.710Z,71.17
2019-06-27T12:37:52.648Z,71.22
2019-06-27T12:40:18.523Z,71.18
2019-06-27T12:42:44.824Z,71.25
2019-06-27T12:45:10.700Z,71.23
2019-06-27T12:47:36.583Z,71.33
2019-06-27T12:50:03.674Z,71.29
2019-06-27T12:52:29.552Z,71.31
2019-06-27T12:54:55.414Z,71.20
2019-06-27T12:57:21.287Z,71.08
2019-06-27T12:59:47.204Z,70.98
2019-06-27T13:02:13.362Z,71.04
2019-06-27T13:04:39.275Z,71.01
2019-06-27T13:07:05.163Z,71.02
2019-06-27T13:09:31.074Z,71.05
2019-06-27T13:11:56.932Z,70.95
2019-06-27T13:14:22.794Z,70.92
2019-06-27T13:16:48.947Z,71.06
2019-06-27T13:19:14.845Z,71.10
2019-06-27T13:21:40.714Z,71.18
2019-06-27T13:24:06.569Z,70.67
2019-06-27T13:26:32.450Z,71.10
2019-06-27T13:28:58.332Z,71.12
2019-06-27T13:31:26.713Z,71.09
2019-06-27T13:33:52.661Z,70.93
2019-06-27T13:36:18.545Z,71.10
2019-06-27T13:38:44.422Z,71.13
2019-06-27T13:41:10.309Z,70.80
2019-06-27T13:43:36.190Z,70.96
2019-06-27T13:46:02.088Z,70.90
2019-06-27T13:48:27.981Z,71.08
2019-06-27T13:50:57.538Z,70.91
2019-06-27T13:53:21.525Z,70.25
2019-06-27T13:55:47.410Z,71.03
2019-06-27T13:58:13.490Z,70.92
2019-06-27T14:00:40.577Z,70.95
2019-06-27T14:03:06.708Z,71.04
2019-06-27T14:05:32.594Z,70.94
2019-06-27T14:07:58.740Z,70.98
2019-06-27T14:10:26.615Z,70.94
2019-06-27T14:12:52.489Z,70.97
2019-06-27T14:15:18.351Z,70.91
2019-06-27T14:17:44.229Z,71.06
2019-06-27T14:20:10.133Z,70.92
2019-06-27T14:22:35.996Z,70.76
2019-06-27T14:25:02.608Z,71.13
2019-06-27T14:27:28.592Z,70.97
2019-06-27T14:29:56.712Z,71.02
2019-06-27T14:32:23.004Z,70.81
2019-06-27T14:34:48.889Z,70.90
2019-06-27T14:37:14.755Z,70.62
2019-06-27T14:39:40.639Z,70.66
2019-06-27T14:42:06.509Z,70.92
2019-06-27T14:44:32.373Z,70.87
2019-06-27T14:46:58.229Z,71.17
2019-06-27T14:49:26.602Z,70.80
2019-06-27T14:51:52.500Z,70.70
2019-06-27T14:54:18.396Z,70.77
2019-06-27T14:56:44.266Z,70.67
2019-06-27T14:59:14.188Z,70.78
2019-06-27T15:01:37.827Z,71.03
2019-06-27T15:04:03.768Z,70.92
2019-06-27T15:06:29.754Z,70.61
2019-06-27T15:08:55.679Z,71.09
2019-06-27T15:11:21.574Z,70.83
2019-06-27T15:13:47.487Z,70.91
2019-06-27T15:16:13.639Z,70.82
2019-06-27T15:18:39.519Z,70.78
2019-06-27T15:21:05.456Z,70.92
2019-06-27T15:23:31.399Z,70.92
2019-06-27T15:25:57.379Z,70.84
2019-06-27T15:28:23.272Z,70.75
2019-06-27T15:30:49.155Z,70.87
2019-06-27T15:33:15.057Z,70.81
2019-06-27T15:35:51.674Z,70.76
2019-06-27T15:38:09.062Z,70.92
2019-06-27T15:40:34.926Z,70.67
2019-06-27T15:43:01.081Z,70.85
2019-06-27T15:45:26.974Z,70.85
2019-06-27T15:47:53.161Z,70.93
2019-06-27T15:50:19.081Z,70.99
2019-06-27T15:52:44.951Z,70.96
2019-06-27T15:55:12.410Z,70.71
2019-06-27T15:57:38.342Z,70.54
2019-06-27T16:00:04.844Z,70.85
2019-06-27T16:02:31.106Z,70.84
2019-06-27T16:04:57.001Z,70.69
2019-06-27T16:07:22.879Z,70.64
2019-06-27T16:09:48.767Z,71.05
2019-06-27T16:12:14.660Z,70.87
2019-06-27T16:14:40.549Z,70.96
2019-06-27T16:17:06.463Z,70.87
2019-06-27T16:19:32.348Z,70.57
2019-06-27T16:21:58.315Z,70.59
2019-06-27T16:24:26.700Z,70.85
2019-06-27T16:26:52.621Z,70.69
2019-06-27T16:29:18.583Z,70.86
2019-06-27T16:31:44.428Z,70.61
2019-06-27T16:34:10.363Z,70.72
2019-06-27T16:36:36.243Z,70.79
2019-06-27T16:39:02.570Z,70.84
2019-06-27T16:41:28.452Z,70.82
2019-06-27T16:43:57.037Z,70.77
2019-06-27T16:46:23.286Z,70.80
2019-06-27T16:48:49.429Z,70.95
2019-06-27T16:51:15.302Z,70.18
2019-06-27T16:53:41.172Z,70.57
2019-06-27T16:56:07.100Z,70.81
2019-06-27T16:58:32.959Z,70.75
2019-06-27T17:00:58.860Z,70.72
2019-06-27T17:03:28.255Z,70.55
2019-06-27T17:05:56.604Z,70.62
2019-06-27T17:08:22.861Z,70.44
2019-06-27T17:10:48.725Z,70.40
2019-06-27T17:13:14.604Z,70.71
2019-06-27T17:15:40.471Z,70.77
2019-06-27T17:18:06.661Z,70.64
2019-06-27T17:20:32.526Z,70.87
2019-06-27T17:22:58.402Z,70.85
2019-06-27T17:25:26.919Z,70.82
2019-06-27T17:27:52.799Z,70.83
2019-06-27T17:30:19.469Z,70.79
2019-06-27T17:32:45.394Z,70.97
2019-06-27T17:35:11.256Z,70.89
2019-06-27T17:37:37.186Z,70.69
2019-06-27T17:40:09.886Z,70.88
2019-06-27T17:42:34.382Z,70.55
2019-06-27T17:45:00.275Z,70.78
2019-06-27T17:47:26.284Z,70.86
2019-06-27T17:49:52.208Z,70.85
2019-06-27T17:52:18.124Z,70.85
2019-06-27T17:54:44.056Z,70.87
2019-06-27T17:57:09.919Z,70.84
2019-06-27T17:59:35.848Z,70.91
2019-06-27T18:02:01.715Z,70.79
2019-06-27T18:04:27.750Z,70.87
2019-06-27T18:06:53.666Z,70.92
2019-06-27T18:09:19.907Z,71.00
2019-06-27T18:11:45.879Z,70.92
2019-06-27T18:14:11.743Z,70.88
2019-06-27T18:16:37.773Z,70.92
2019-06-27T18:19:03.763Z,71.01
2019-06-27T18:21:29.978Z,70.55
2019-06-27T18:23:55.929Z,71.31
2019-06-27T18:26:21.847Z,70.83
2019-06-27T18:28:47.749Z,70.94
2019-06-27T18:31:13.931Z,70.98
2019-06-27T18:33:40.003Z,70.96
2019-06-27T18:36:05.873Z,71.02
2019-06-27T18:38:32.151Z,71.06
2019-06-27T18:40:58.037Z,70.91
2019-06-27T18:43:26.929Z,71.10
2019-06-27T18:45:52.804Z,71.05
2019-06-27T18:48:18.705Z,71.03
2019-06-27T18:50:50.668Z,71.12
2019-06-27T18:53:16.734Z,71.07
2019-06-27T18:55:42.889Z,70.82
2019-06-27T18:58:08.962Z,71.09
2019-06-27T19:00:35.032Z,71.12
2019-06-27T19:03:01.126Z,71.01
2019-06-27T19:05:27.142Z,71.17
2019-06-27T19:07:53.087Z,70.94
2019-06-27T19:10:19.451Z,71.05
2019-06-27T19:12:45.505Z,70.92
2019-06-27T19:15:12.178Z,71.03
2019-06-27T19:17:38.137Z,71.02
2019-06-27T19:20:23.465Z,71.12
2019-06-27T19:23:07.757Z,71.02
2019-06-27T19:25:38.677Z,71.13
2019-06-27T19:28:04.544Z,71.00
2019-06-27T19:30:31.007Z,71.15
2019-06-27T19:32:57.145Z,71.04
2019-06-27T19:35:23.187Z,71.05
2019-06-27T19:38:01.515Z,71.00
2019-06-27T19:40:17.435Z,71.08
2019-06-27T19:42:43.484Z,71.13
2019-06-27T19:45:09.868Z,71.13
2019-06-27T19:47:35.894Z,71.10
2019-06-27T19:50:02.385Z,71.23
2019-06-27T19:52:28.405Z,71.20
2019-06-27T19:54:56.308Z,71.16
2019-06-27T19:57:22.802Z,71.15
2019-06-27T19:59:49.743Z,71.19
2019-06-27T20:02:16.620Z,71.16
2019-06-27T20:04:43.197Z,71.21
2019-06-27T20:07:10.156Z,71.12
2019-06-27T20:09:36.934Z,71.29
2019-06-27T20:12:03.282Z,71.16
2019-06-27T20:14:30.464Z,71.26
2019-06-27T20:16:56.734Z,71.26
2019-06-27T20:19:23.802Z,71.33
2019-06-27T20:21:50.265Z,71.26
2019-06-27T20:24:17.171Z,71.31
2019-06-27T20:26:43.932Z,71.36
2019-06-27T20:29:10.677Z,71.33
2019-06-27T20:31:37.453Z,71.36
2019-06-27T20:34:04.024Z,71.31
2019-06-27T20:36:32.355Z,71.40
2019-06-27T20:39:02.153Z,71.40
2019-06-27T20:41:29.994Z,71.39
2019-06-27T20:43:59.354Z,71.32
2019-06-27T20:46:27.286Z,71.37
2019-06-27T20:48:57.797Z,71.39
2019-06-27T20:51:29.998Z,71.72
2019-06-27T20:53:57.892Z,71.42
2019-06-27T20:56:25.090Z,71.41
2019-06-27T20:58:51.217Z,71.39
2019-06-27T21:01:17.183Z,71.25
2019-06-27T21:03:43.547Z,71.16
2019-06-27T21:06:09.942Z,71.08
2019-06-27T21:08:50.231Z,70.77
2019-06-27T21:11:03.834Z,70.57
2019-06-27T21:13:30.070Z,70.43
2019-06-27T21:15:56.507Z,70.26
2019-06-27T21:18:22.400Z,70.08
2019-06-27T21:20:48.649Z,69.87
2019-06-27T21:23:14.826Z,69.85
2019-06-27T21:25:40.908Z,69.62
2019-06-27T21:28:06.881Z,69.18
2019-06-27T21:30:33.556Z,69.81
2019-06-27T21:32:59.715Z,69.29
2019-06-27T21:35:26.006Z,69.62
2019-06-27T21:37:52.169Z,69.61
2019-06-27T21:40:18.256Z,69.57
2019-06-27T21:42:44.339Z,69.67
2019-06-27T21:45:10.927Z,69.51
2019-06-27T21:47:36.998Z,69.64
2019-06-27T21:50:06.264Z,69.72
2019-06-27T21:52:32.332Z,69.72
2019-06-27T21:54:58.493Z,69.72
2019-06-27T21:57:26.527Z,69.60
2019-06-27T21:59:53.815Z,69.69
2019-06-27T22:02:20.811Z,69.59
2019-06-27T22:04:46.975Z,69.72
2019-06-27T22:07:13.052Z,69.74
2019-06-27T22:09:39.039Z,69.79
2019-06-27T22:12:05.113Z,69.83
2019-06-27T22:14:31.307Z,69.87
2019-06-27T22:16:57.974Z,69.94
2019-06-27T22:19:23.862Z,69.92
2019-06-27T22:21:49.925Z,69.85
2019-06-27T22:24:16.278Z,69.85
2019-06-27T22:26:42.304Z,69.86
2019-06-27T22:29:08.193Z,69.92
2019-06-27T22:31:34.323Z,69.12
2019-06-27T22:34:00.225Z,70.00
2019-06-27T22:36:26.278Z,70.15
2019-06-27T22:39:10.592Z,70.11
2019-06-27T22:41:54.920Z,69.97
2019-06-27T22:44:39.476Z,70.08
2019-06-27T22:47:24.927Z,70.09
2019-06-27T22:49:50.788Z,70.15
2019-06-27T22:52:36.526Z,70.04
2019-06-27T22:55:10.179Z,70.11
2019-06-27T22:57:36.186Z,70.08
2019-06-27T23:00:02.475Z,70.08
2019-06-27T23:02:28.493Z,70.04
2019-06-27T23:04:57.336Z,70.08
2019-06-27T23:07:23.308Z,70.13
2019-06-27T23:09:57.066Z,70.29
2019-06-27T23:12:17.210Z,70.15
2019-06-27T23:14:43.109Z,70.29
2019-06-27T23:17:09.044Z,70.21
2019-06-27T23:19:34.903Z,70.26
2019-06-27T23:22:00.867Z,70.15
2019-06-27T23:24:27.173Z,69.95
2019-06-27T23:26:53.189Z,70.19
2019-06-27T23:29:19.157Z,70.26
2019-06-27T23:31:45.114Z,70.46
2019-06-27T23:34:11.171Z,70.27
2019-06-27T23:36:37.214Z,70.44
2019-06-27T23:39:03.981Z,70.30
2019-06-27T23:41:29.836Z,70.41
2019-06-27T23:43:55.797Z,70.51
2019-06-27T23:46:29.506Z,70.41
2019-06-27T23:48:55.463Z,70.45
2019-06-27T23:51:21.510Z,70.41
2019-06-27T23:53:47.480Z,70.31
2019-06-27T23:56:13.503Z,70.24
2019-06-27T23:58:39.408Z,70.37
